createdAt,value
2018-12-16T00:00:29.575Z,43.83
2018-12-16T00:03:00.514Z,44.17
2018-12-16T00:05:31.180Z,41.70
2018-12-16T00:08:01.411Z,44.23
2018-12-16T00:10:31.497Z,51.03
2018-12-16T00:13:01.622Z,43.30
2018-12-16T00:15:31.894Z,43.70
2018-12-16T00:18:02.778Z,43.33
2018-12-16T00:20:34.156Z,43.07
2018-12-16T00:23:04.766Z,46.30
2018-12-16T00:25:35.512Z,41.17
2018-12-16T00:28:06.506Z,40.00
2018-12-16T00:30:36.812Z,47.60
2018-12-16T00:33:08.012Z,41.10
2018-12-16T00:35:37.987Z,39.57
2018-12-16T00:38:08.466Z,36.63
2018-12-16T00:40:38.543Z,50.03
2018-12-16T00:43:08.835Z,38.07
2018-12-16T00:45:38.857Z,44.53
2018-12-16T00:48:10.373Z,45.67
2018-12-16T00:50:40.440Z,41.77
2018-12-16T00:53:11.500Z,48.50
2018-12-16T00:55:41.590Z,44.00
2018-12-16T00:58:12.298Z,39.93
2018-12-16T01:00:42.481Z,54.83
2018-12-16T01:03:13.070Z,46.60
2018-12-16T01:05:44.134Z,47.53
2018-12-16T01:08:15.143Z,38.90
2018-12-16T01:10:45.191Z,46.50
2018-12-16T01:13:15.492Z,40.70
2018-12-16T01:15:45.606Z,44.47
2018-12-16T01:18:15.802Z,39.17
2018-12-16T01:20:45.892Z,44.73
2018-12-16T01:23:16.325Z,45.07
2018-12-16T01:25:46.409Z,52.73
2018-12-16T01:28:16.611Z,52.53
2018-12-16T01:30:47.456Z,61.97
2018-12-16T01:33:17.652Z,59.70
2018-12-16T01:35:48.711Z,52.53
2018-12-16T01:38:19.405Z,53.77
2018-12-16T01:40:51.020Z,59.13
2018-12-16T01:43:21.114Z,59.57
2018-12-16T01:45:51.326Z,60.50
2018-12-16T01:48:21.319Z,64.40
2018-12-16T01:50:51.907Z,52.40
2018-12-16T01:53:22.190Z,68.03
2018-12-16T01:55:52.268Z,65.40
2018-12-16T01:58:23.456Z,60.77
2018-12-16T02:00:54.469Z,63.63
2018-12-16T02:03:24.627Z,55.67
2018-12-16T02:05:54.738Z,62.90
2018-12-16T02:08:26.217Z,67.27
2018-12-16T02:10:56.453Z,62.63
2018-12-16T02:13:26.554Z,66.73
2018-12-16T02:15:56.645Z,86.30
2018-12-16T02:18:27.347Z,73.93
2018-12-16T02:20:57.810Z,66.53
2018-12-16T02:23:28.028Z,68.87
2018-12-16T02:25:58.169Z,64.43
2018-12-16T02:28:29.278Z,73.43
2018-12-16T02:30:59.304Z,60.97
2018-12-16T02:33:30.771Z,68.33
2018-12-16T02:36:00.910Z,71.93
2018-12-16T02:38:32.147Z,77.40
2018-12-16T02:41:02.279Z,66.63
2018-12-16T02:43:32.434Z,73.57
2018-12-16T02:46:02.928Z,67.07
2018-12-16T02:48:33.757Z,62.80
2018-12-16T02:51:03.703Z,60.20
2018-12-16T02:53:33.709Z,63.73
2018-12-16T02:56:04.604Z,61.33
2018-12-16T02:58:34.749Z,64.37
2018-12-16T03:01:05.002Z,67.30
2018-12-16T03:03:35.091Z,61.90
2018-12-16T03:06:05.250Z,62.30
2018-12-16T03:08:35.432Z,67.03
2018-12-16T03:11:05.567Z,52.87
2018-12-16T03:13:35.541Z,59.67
2018-12-16T03:16:05.763Z,65.37
2018-12-16T03:18:35.999Z,54.80
2018-12-16T03:21:07.169Z,66.00
2018-12-16T03:23:37.301Z,66.80
2018-12-16T03:26:07.451Z,49.03
2018-12-16T03:28:38.654Z,71.70
2018-12-16T03:31:08.716Z,61.30
2018-12-16T03:33:38.913Z,60.67
2018-12-16T03:36:08.995Z,56.33
2018-12-16T03:38:39.163Z,83.67
2018-12-16T03:41:10.147Z,68.43
2018-12-16T03:43:40.718Z,61.53
2018-12-16T03:46:11.418Z,55.70
2018-12-16T03:48:41.647Z,65.80
2018-12-16T03:51:11.636Z,72.13
2018-12-16T03:53:42.607Z,71.97
2018-12-16T03:56:14.172Z,66.53
2018-12-16T03:59:01.155Z,64.17
2018-12-16T04:01:31.894Z,61.23
2018-12-16T04:04:03.057Z,61.33
2018-12-16T04:06:33.142Z,78.30
2018-12-16T04:09:03.666Z,58.13
2018-12-16T04:11:33.723Z,77.73
2018-12-16T04:14:04.047Z,66.47
2018-12-16T04:16:34.263Z,60.80
2018-12-16T04:19:04.516Z,60.97
2018-12-16T04:21:35.355Z,65.30
2018-12-16T04:24:06.507Z,56.53
2018-12-16T04:26:36.625Z,65.90
2018-12-16T04:29:07.243Z,60.03
2018-12-16T04:31:37.386Z,53.60
2018-12-16T04:34:07.494Z,70.70
2018-12-16T04:36:38.446Z,64.07
2018-12-16T04:39:09.161Z,61.83
2018-12-16T04:41:39.601Z,66.93
2018-12-16T04:44:09.731Z,61.87
2018-12-16T04:46:39.954Z,65.20
2018-12-16T04:49:10.791Z,58.30
2018-12-16T04:51:40.912Z,70.60
2018-12-16T04:54:11.015Z,57.33
2018-12-16T04:56:41.073Z,61.03
2018-12-16T04:59:12.335Z,58.33
2018-12-16T05:01:42.533Z,67.90
2018-12-16T05:04:12.798Z,55.43
2018-12-16T05:06:42.995Z,61.60
2018-12-16T05:09:12.987Z,59.93
2018-12-16T05:11:43.883Z,52.50
2018-12-16T05:14:14.185Z,56.50
2018-12-16T05:16:45.062Z,63.90
2018-12-16T05:19:15.387Z,59.87
2018-12-16T05:21:45.560Z,57.20
2018-12-16T05:24:15.917Z,59.13
2018-12-16T05:26:46.106Z,60.13
2018-12-16T05:29:16.317Z,53.70
2018-12-16T05:31:46.511Z,62.30
2018-12-16T05:34:16.581Z,65.57
2018-12-16T05:36:47.485Z,60.23
2018-12-16T05:39:17.536Z,57.13
2018-12-16T05:41:47.728Z,67.27
2018-12-16T05:44:18.342Z,55.60
2018-12-16T05:46:48.363Z,55.77
2018-12-16T05:49:18.524Z,54.00
2018-12-16T05:51:48.710Z,54.60
2018-12-16T05:54:18.815Z,58.00
2018-12-16T05:56:48.956Z,56.03
2018-12-16T05:59:19.608Z,58.37
2018-12-16T06:01:50.174Z,58.87
2018-12-16T06:04:20.279Z,54.93
2018-12-16T06:06:50.809Z,59.53
2018-12-16T06:09:21.154Z,64.27
2018-12-16T06:11:51.497Z,58.70
2018-12-16T06:14:21.616Z,60.73
2018-12-16T06:16:52.367Z,54.20
2018-12-16T06:19:22.537Z,54.47
2018-12-16T06:21:52.719Z,55.77
2018-12-16T06:24:23.300Z,56.93
2018-12-16T06:26:54.640Z,55.37
2018-12-16T06:29:24.705Z,56.03
2018-12-16T06:31:55.384Z,47.30
2018-12-16T06:34:26.231Z,54.97
2018-12-16T06:36:57.039Z,59.50
2018-12-16T06:39:27.278Z,58.93
2018-12-16T06:41:58.039Z,57.43
2018-12-16T06:44:28.737Z,56.10
2018-12-16T06:46:58.899Z,56.83
2018-12-16T06:49:28.973Z,61.13
2018-12-16T06:51:59.161Z,55.20
2018-12-16T06:54:30.901Z,55.27
2018-12-16T06:57:01.135Z,54.63
2018-12-16T06:59:31.266Z,63.03
2018-12-16T07:02:02.136Z,66.57
2018-12-16T07:04:32.099Z,62.07
2018-12-16T07:07:02.744Z,55.80
2018-12-16T07:09:33.674Z,66.43
2018-12-16T07:12:04.037Z,59.77
2018-12-16T07:14:34.866Z,55.10
2018-12-16T07:17:05.317Z,62.67
2018-12-16T07:19:35.607Z,52.20
2018-12-16T07:22:05.849Z,56.70
2018-12-16T07:24:36.738Z,58.13
2018-12-16T07:27:06.988Z,63.03
2018-12-16T07:29:37.227Z,65.13
2018-12-16T07:32:07.265Z,62.93
2018-12-16T07:34:37.902Z,56.03
2018-12-16T07:37:08.129Z,57.87
2018-12-16T07:39:38.252Z,52.23
2018-12-16T07:42:09.154Z,59.77
2018-12-16T07:44:39.524Z,56.53
2018-12-16T07:47:09.635Z,57.10
2018-12-16T07:49:40.175Z,53.00
2018-12-16T07:52:10.909Z,55.97
2018-12-16T07:54:42.556Z,45.20
2018-12-16T07:57:12.601Z,59.90
2018-12-16T07:59:42.696Z,52.73
2018-12-16T08:02:12.933Z,56.67
2018-12-16T08:04:43.240Z,49.93
2018-12-16T08:07:13.875Z,63.53
2018-12-16T08:09:44.662Z,59.20
2018-12-16T08:12:14.580Z,56.77
2018-12-16T08:14:44.958Z,56.40
2018-12-16T08:17:15.168Z,53.63
2018-12-16T08:19:45.397Z,52.13
2018-12-16T08:22:15.481Z,56.47
2018-12-16T08:24:46.190Z,55.20
2018-12-16T08:27:16.228Z,50.20
2018-12-16T08:29:46.436Z,52.50
2018-12-16T08:32:16.580Z,53.80
2018-12-16T08:34:46.712Z,61.27
2018-12-16T08:37:17.524Z,52.17
2018-12-16T08:39:48.798Z,53.70
2018-12-16T08:42:18.739Z,54.47
2018-12-16T08:44:50.169Z,61.43
2018-12-16T08:47:20.716Z,58.57
2018-12-16T08:49:50.925Z,53.23
2018-12-16T08:52:22.584Z,55.67
2018-12-16T08:54:53.233Z,56.60
2018-12-16T08:57:24.062Z,58.93
2018-12-16T08:59:54.797Z,52.53
2018-12-16T09:02:34.747Z,49.20
2018-12-16T09:05:05.174Z,55.90
2018-12-16T09:07:37.519Z,54.70
2018-12-16T09:10:09.022Z,55.13
2018-12-16T09:12:39.208Z,55.10
2018-12-16T09:15:10.058Z,52.97
2018-12-16T09:17:40.173Z,59.40
2018-12-16T09:20:10.501Z,55.40
2018-12-16T09:22:40.509Z,53.10
2018-12-16T09:25:10.763Z,52.30
2018-12-16T09:27:42.413Z,57.90
2018-12-16T09:30:14.042Z,65.37
2018-12-16T09:32:44.107Z,54.53
2018-12-16T09:35:14.270Z,49.83
2018-12-16T09:37:44.472Z,50.40
2018-12-16T09:40:14.669Z,49.40
2018-12-16T09:42:45.417Z,51.30
2018-12-16T09:45:15.600Z,52.03
2018-12-16T09:47:45.978Z,46.73
2018-12-16T09:50:15.999Z,53.43
2018-12-16T09:52:46.055Z,42.60
2018-12-16T09:55:16.221Z,57.30
2018-12-16T09:57:46.488Z,51.30
2018-12-16T10:00:16.547Z,54.10
2018-12-16T10:02:46.702Z,58.57
2018-12-16T10:05:16.810Z,53.70
2018-12-16T10:07:47.676Z,55.17
2018-12-16T10:10:17.687Z,53.13
2018-12-16T10:12:49.105Z,53.57
2018-12-16T10:15:19.793Z,54.03
2018-12-16T10:17:50.510Z,51.93
2018-12-16T10:20:21.678Z,56.60
2018-12-16T10:22:52.584Z,56.57
2018-12-16T10:25:22.981Z,58.97
2018-12-16T10:27:54.680Z,52.20
2018-12-16T10:30:25.338Z,47.87
2018-12-16T10:32:59.080Z,60.00
2018-12-16T10:35:30.604Z,50.10
2018-12-16T10:38:00.716Z,55.47
2018-12-16T10:40:31.449Z,50.20
2018-12-16T10:43:01.337Z,54.67
2018-12-16T10:45:31.275Z,56.97
2018-12-16T10:48:01.194Z,59.63
2018-12-16T10:50:31.094Z,51.77
2018-12-16T10:53:01.319Z,50.10
2018-12-16T10:55:31.488Z,49.20
2018-12-16T10:58:01.589Z,55.30
2018-12-16T11:00:36.839Z,50.37
2018-12-16T11:03:07.030Z,50.10
2018-12-16T11:05:38.219Z,40.17
2018-12-16T11:08:08.499Z,41.33
2018-12-16T11:10:38.623Z,45.33
2018-12-16T11:13:08.909Z,44.50
2018-12-16T11:15:39.003Z,47.43
2018-12-16T11:18:09.123Z,39.37
2018-12-16T11:20:40.017Z,43.73
2018-12-16T11:23:15.855Z,45.10
2018-12-16T11:25:51.041Z,47.20
2018-12-16T11:28:21.297Z,41.93
2018-12-16T11:30:51.418Z,37.87
2018-12-16T11:33:21.668Z,42.87
2018-12-16T11:35:51.606Z,38.57
2018-12-16T11:38:21.552Z,40.57
2018-12-16T11:40:51.455Z,40.00
2018-12-16T11:43:21.387Z,43.03
2018-12-16T11:45:51.447Z,39.07
2018-12-16T11:48:21.490Z,49.10
2018-12-16T11:50:52.747Z,42.03
2018-12-16T11:53:23.066Z,39.87
2018-12-16T11:55:53.395Z,39.70
2018-12-16T11:58:24.533Z,39.07
2018-12-16T12:00:54.588Z,36.37
2018-12-16T12:03:24.710Z,35.10
2018-12-16T12:05:54.735Z,39.23
2018-12-16T12:08:25.091Z,41.83
2018-12-16T12:10:55.176Z,41.03
2018-12-16T12:13:25.834Z,46.13
2018-12-16T12:15:55.906Z,37.07
2018-12-16T12:18:26.652Z,41.93
2018-12-16T12:20:56.782Z,37.60
2018-12-16T12:23:27.752Z,34.07
2018-12-16T12:25:58.478Z,36.70
2018-12-16T12:28:29.587Z,37.70
2018-12-16T12:31:00.136Z,36.57
2018-12-16T12:33:30.921Z,35.20
2018-12-16T12:36:02.133Z,32.17
2018-12-16T12:38:32.712Z,39.60
2018-12-16T12:41:02.883Z,35.97
2018-12-16T12:43:33.703Z,33.20
2018-12-16T12:46:04.679Z,39.37
2018-12-16T12:48:34.874Z,30.73
2018-12-16T12:51:05.002Z,33.30
2018-12-16T12:53:36.371Z,41.70
2018-12-16T12:56:06.558Z,35.10
2018-12-16T12:58:38.836Z,30.67
2018-12-16T13:01:09.485Z,33.87
2018-12-16T13:03:39.594Z,34.33
2018-12-16T13:06:10.574Z,31.07
2018-12-16T13:08:40.876Z,33.13
2018-12-16T13:11:11.045Z,36.13
2018-12-16T13:13:41.818Z,32.03
2018-12-16T13:16:12.004Z,32.07
2018-12-16T13:18:43.532Z,32.60
2018-12-16T13:21:13.699Z,24.57
2018-12-16T13:23:43.857Z,26.13
2018-12-16T13:26:13.934Z,29.63
2018-12-16T13:28:44.815Z,26.63
2018-12-16T13:31:14.988Z,27.30
2018-12-16T13:33:45.115Z,23.13
2018-12-16T13:36:15.128Z,33.33
2018-12-16T13:38:45.503Z,26.23
2018-12-16T13:41:15.644Z,26.87
2018-12-16T13:43:46.460Z,26.53
2018-12-16T13:46:17.957Z,30.20
2018-12-16T13:48:48.697Z,25.23
2018-12-16T13:51:20.562Z,25.57
2018-12-16T13:53:51.314Z,28.90
2018-12-16T13:56:22.345Z,27.73
2018-12-16T13:58:52.532Z,29.23
2018-12-16T14:01:22.460Z,29.43
2018-12-16T14:03:52.587Z,30.10
2018-12-16T14:06:22.758Z,23.60
2018-12-16T14:08:53.775Z,43.60
2018-12-16T14:11:24.011Z,36.67
2018-12-16T14:13:54.042Z,23.77
2018-12-16T14:16:24.146Z,27.47
2018-12-16T14:18:54.168Z,29.50
2018-12-16T14:21:24.211Z,26.13
2018-12-16T14:23:54.289Z,30.50
2018-12-16T14:26:25.683Z,32.47
2018-12-16T14:28:55.708Z,46.83
2018-12-16T14:31:27.627Z,37.70
2018-12-16T14:33:58.391Z,32.30
2018-12-16T14:36:28.625Z,34.67
2018-12-16T14:38:58.793Z,29.40
2018-12-16T14:41:28.800Z,30.23
2018-12-16T14:43:59.108Z,47.10
2018-12-16T14:46:30.261Z,41.67
2018-12-16T14:49:00.360Z,49.10
2018-12-16T14:51:31.222Z,43.50
2018-12-16T14:54:01.330Z,32.37
2018-12-16T14:56:32.143Z,44.90
2018-12-16T14:59:03.359Z,49.53
2018-12-16T15:01:33.875Z,31.10
2018-12-16T15:04:04.007Z,33.83
2018-12-16T15:06:34.168Z,33.50
2018-12-16T15:09:08.224Z,31.60
2018-12-16T15:11:38.332Z,28.27
2018-12-16T15:14:08.796Z,28.27
2018-12-16T15:16:38.975Z,34.53
2018-12-16T15:19:09.903Z,30.37
2018-12-16T15:21:40.703Z,29.40
2018-12-16T15:24:10.761Z,53.67
2018-12-16T15:26:40.855Z,42.30
2018-12-16T15:29:10.891Z,39.80
2018-12-16T15:31:40.902Z,40.53
2018-12-16T15:34:11.762Z,36.07
2018-12-16T15:36:42.533Z,34.87
2018-12-16T15:39:12.735Z,38.30
2018-12-16T15:41:42.925Z,47.53
2018-12-16T15:44:13.352Z,58.40
2018-12-16T15:46:43.543Z,33.17
2018-12-16T15:49:14.258Z,62.03
2018-12-16T15:51:44.313Z,75.63
2018-12-16T15:54:14.953Z,68.17
2018-12-16T15:56:45.795Z,43.27
2018-12-16T15:59:15.859Z,50.23
2018-12-16T16:01:45.840Z,65.57
2018-12-16T16:04:16.677Z,45.30
2018-12-16T16:06:47.876Z,34.63
2018-12-16T16:09:18.256Z,55.77
2018-12-16T16:11:48.802Z,98.60
2018-12-16T16:14:19.115Z,128.63
2018-12-16T16:16:49.142Z,81.03
2018-12-16T16:19:19.240Z,56.97
2018-12-16T16:21:49.333Z,64.83
2018-12-16T16:24:19.649Z,49.83
2018-12-16T16:26:49.732Z,42.50
2018-12-16T16:29:19.965Z,42.33
2018-12-16T16:31:50.020Z,55.27
2018-12-16T16:34:20.232Z,33.73
2018-12-16T16:36:50.421Z,36.67
2018-12-16T16:39:21.131Z,32.80
2018-12-16T16:41:51.948Z,43.63
2018-12-16T16:44:22.036Z,36.07
2018-12-16T16:46:52.083Z,39.60
2018-12-16T16:49:22.179Z,40.00
2018-12-16T16:51:52.391Z,41.63
2018-12-16T16:54:23.142Z,39.43
2018-12-16T16:56:53.229Z,38.60
2018-12-16T16:59:24.105Z,47.40
2018-12-16T17:01:54.231Z,44.43
2018-12-16T17:04:24.358Z,53.00
2018-12-16T17:06:54.515Z,47.07
2018-12-16T17:09:25.301Z,47.23
2018-12-16T17:11:55.424Z,43.60
2018-12-16T17:14:25.607Z,39.20
2018-12-16T17:16:55.730Z,42.07
2018-12-16T17:19:26.619Z,60.23
2018-12-16T17:21:58.377Z,64.70
2018-12-16T17:24:29.129Z,53.40
2018-12-16T17:26:59.173Z,63.23
2018-12-16T17:29:29.345Z,52.43
2018-12-16T17:32:00.303Z,54.17
2018-12-16T17:34:30.496Z,42.00
2018-12-16T17:37:01.353Z,42.00
2018-12-16T17:39:32.207Z,45.73
2018-12-16T17:42:02.355Z,48.30
2018-12-16T17:44:32.616Z,43.70
2018-12-16T17:47:02.641Z,60.63
2018-12-16T17:49:33.514Z,43.40
2018-12-16T17:52:03.598Z,42.60
2018-12-16T17:54:33.854Z,58.03
2018-12-16T17:57:03.983Z,52.10
2018-12-16T17:59:34.706Z,55.90
2018-12-16T18:02:05.490Z,55.67
2018-12-16T18:04:36.094Z,44.03
2018-12-16T18:07:07.206Z,40.00
2018-12-16T18:09:37.993Z,46.57
2018-12-16T18:12:08.524Z,47.63
2018-12-16T18:14:38.613Z,50.60
2018-12-16T18:17:09.967Z,44.20
2018-12-16T18:19:40.324Z,51.00
2018-12-16T18:22:14.123Z,41.23
2018-12-16T18:24:44.027Z,50.23
2018-12-16T18:27:14.217Z,48.90
2018-12-16T18:29:44.287Z,46.50
2018-12-16T18:32:14.507Z,49.07
2018-12-16T18:34:45.261Z,44.40
2018-12-16T18:37:16.836Z,45.77
2018-12-16T18:39:47.608Z,41.90
2018-12-16T18:42:17.776Z,46.67
2018-12-16T18:44:47.989Z,41.50
2018-12-16T18:47:18.176Z,47.10
2018-12-16T18:49:48.219Z,46.53
2018-12-16T18:52:19.326Z,55.70
2018-12-16T18:54:50.022Z,52.90
2018-12-16T18:57:20.837Z,51.73
2018-12-16T18:59:51.983Z,54.70
2018-12-16T19:02:22.300Z,48.57
2018-12-16T19:04:52.444Z,47.93
2018-12-16T19:07:22.703Z,50.63
2018-12-16T19:09:53.334Z,49.70
2018-12-16T19:12:23.526Z,51.40
2018-12-16T19:14:54.270Z,49.87
2018-12-16T19:17:24.579Z,45.47
2018-12-16T19:19:55.000Z,49.53
2018-12-16T19:22:25.657Z,61.30
2018-12-16T19:24:55.836Z,47.40
2018-12-16T19:27:26.823Z,52.77
2018-12-16T19:29:57.167Z,47.77
2018-12-16T19:32:27.423Z,51.07
2018-12-16T19:34:57.782Z,54.07
2018-12-16T19:37:29.427Z,59.13
2018-12-16T19:40:00.568Z,65.30
2018-12-16T19:42:31.697Z,59.13
2018-12-16T19:45:02.550Z,56.33
2018-12-16T19:47:35.014Z,45.87
2018-12-16T19:50:07.658Z,52.47
2018-12-16T19:52:38.902Z,52.27
2018-12-16T19:55:10.325Z,53.23
2018-12-16T19:57:42.736Z,55.57
2018-12-16T20:00:15.210Z,57.67
2018-12-16T20:02:46.937Z,45.80
2018-12-16T20:05:23.631Z,51.90
2018-12-16T20:07:55.398Z,46.07
2018-12-16T20:10:27.600Z,52.67
2018-12-16T20:13:00.028Z,75.17
2018-12-16T20:15:31.682Z,90.20
2018-12-16T20:18:03.028Z,59.60
2018-12-16T20:20:34.019Z,70.73
2018-12-16T20:23:05.927Z,107.43
2018-12-16T20:25:37.558Z,68.33
2018-12-16T20:28:09.215Z,75.10
2018-12-16T20:30:40.141Z,51.47
2018-12-16T20:33:11.328Z,53.17
2018-12-16T20:35:42.493Z,58.30
2018-12-16T20:38:12.947Z,52.90
2018-12-16T20:40:44.581Z,50.07
2018-12-16T20:43:14.721Z,54.27
2018-12-16T20:45:44.916Z,54.70
2018-12-16T20:48:15.975Z,51.30
2018-12-16T20:50:46.895Z,62.03
2018-12-16T20:53:17.754Z,51.63
2018-12-16T20:55:47.871Z,48.27
2018-12-16T20:58:18.006Z,49.70
2018-12-16T21:00:49.455Z,50.13
2018-12-16T21:03:19.563Z,50.50
2018-12-16T21:05:49.784Z,58.70
2018-12-16T21:08:19.859Z,57.90
2018-12-16T21:10:50.169Z,52.30
2018-12-16T21:13:25.396Z,53.17
2018-12-16T21:16:00.659Z,56.30
2018-12-16T21:18:31.624Z,45.10
2018-12-16T21:21:02.895Z,52.10
2018-12-16T21:23:32.981Z,60.63
2018-12-16T21:26:03.880Z,63.07
2018-12-16T21:28:34.074Z,53.83
2018-12-16T21:31:04.063Z,48.30
2018-12-16T21:33:33.956Z,51.50
2018-12-16T21:36:03.917Z,53.23
2018-12-16T21:38:34.590Z,50.77
2018-12-16T21:41:04.639Z,49.00
2018-12-16T21:43:34.936Z,52.17
2018-12-16T21:46:05.580Z,49.57
2018-12-16T21:48:35.655Z,59.37
2018-12-16T21:51:05.868Z,53.67
2018-12-16T21:53:36.671Z,57.57
2018-12-16T21:56:06.714Z,61.77
2018-12-16T21:58:36.752Z,58.57
2018-12-16T22:01:07.019Z,51.77
2018-12-16T22:03:38.086Z,56.97
2018-12-16T22:06:09.037Z,52.67
2018-12-16T22:08:38.970Z,52.80
2018-12-16T22:11:09.087Z,51.17
2018-12-16T22:13:40.290Z,59.40
2018-12-16T22:16:10.572Z,61.37
2018-12-16T22:18:41.714Z,53.17
2018-12-16T22:21:11.902Z,55.43
2018-12-16T22:23:42.131Z,55.13
2018-12-16T22:26:12.802Z,54.67
2018-12-16T22:28:42.826Z,54.70
2018-12-16T22:31:13.796Z,53.40
2018-12-16T22:33:43.985Z,52.97
2018-12-16T22:36:14.047Z,56.90
2018-12-16T22:38:44.773Z,56.97
2018-12-16T22:41:15.362Z,54.60
2018-12-16T22:43:45.454Z,53.63
2018-12-16T22:46:16.795Z,59.93
2018-12-16T22:48:47.059Z,58.20
2018-12-16T22:51:18.310Z,61.37
2018-12-16T22:53:50.195Z,51.80
2018-12-16T22:56:20.131Z,64.53
2018-12-16T22:58:54.355Z,58.27
2018-12-16T23:01:23.184Z,63.60
2018-12-16T23:03:53.906Z,63.17
2018-12-16T23:06:25.222Z,67.80
2018-12-16T23:08:55.367Z,56.07
2018-12-16T23:11:26.637Z,61.23
2018-12-16T23:13:57.514Z,60.47
2018-12-16T23:16:29.069Z,59.80
2018-12-16T23:18:59.221Z,54.60
2018-12-16T23:21:29.402Z,67.20
2018-12-16T23:23:59.486Z,69.50
2018-12-16T23:26:30.409Z,64.20
2018-12-16T23:29:00.526Z,57.93
2018-12-16T23:31:32.390Z,59.87
2018-12-16T23:34:03.277Z,59.87
2018-12-16T23:36:34.318Z,59.10
2018-12-16T23:39:05.196Z,70.30
2018-12-16T23:41:35.417Z,60.27
2018-12-16T23:44:06.159Z,60.77
2018-12-16T23:46:36.985Z,55.87
2018-12-16T23:49:07.163Z,56.63
2018-12-16T23:51:37.478Z,57.50
2018-12-16T23:54:08.712Z,68.93
2018-12-16T23:56:39.429Z,61.27
2018-12-16T23:59:10.899Z,62.33
